Time;durP1;ratioP1;P1;durP2;ratioP2;P2;SDS_P1;SDS_P2;PMS_P1;PMS_P2;Temp;Humidity;BMP_temperature;BMP_pressure;BME280_temperature;BME280_humidity;BME280_pressure;Samples;Min_cycle;Max_cycle;Signal;HPM_P1;HPM_P2
2023/10/09 00:01:18;;;;;;;10.43;4.15;;;;;;;;;;5105162;28;20067;-74
2023/10/09 00:03:53;;;;;;;7.30;4.30;;;;;;;;;;5111492;28;20042;-74
2023/10/09 00:06:31;;;;;;;10.25;4.97;;;;;;;;;;5112029;28;20031;-74
2023/10/09 00:08:57;;;;;;;9.55;4.97;;;;;;;;;;5106702;28;20046;-73
2023/10/09 00:11:29;;;;;;;8.75;5.10;;;;;;;;;;5112334;28;20032;-73
2023/10/09 00:14:00;;;;;;;10.30;5.30;;;;;;;;;;5107880;28;20454;-73
2023/10/09 00:16:37;;;;;;;12.95;5.50;;;;;;;;;;5112363;28;20036;-74
2023/10/09 00:19:14;;;;;;;14.73;5.72;;;;;;;;;;5110193;28;20048;-74
2023/10/09 00:21:40;;;;;;;8.98;5.20;;;;;;;;;;5087169;28;20051;-74
2023/10/09 00:24:13;;;;;;;11.57;5.90;;;;;;;;;;5106927;28;20039;-74
2023/10/09 00:26:43;;;;;;;10.07;6.18;;;;;;;;;;5111638;28;20035;-74
2023/10/09 00:29:15;;;;;;;17.30;7.10;;;;;;;;;;5111170;28;20055;-74
2023/10/09 00:31:50;;;;;;;10.27;6.60;;;;;;;;;;5111797;28;20032;-74
2023/10/09 00:34:19;;;;;;;13.45;6.40;;;;;;;;;;5111432;28;20397;-74
2023/10/09 00:36:53;;;;;;;12.98;7.57;;;;;;;;;;5112695;28;20050;-74
2023/10/09 00:39:41;;;;;;;13.07;6.65;;;;;;;;;;5108352;28;20047;-74
2023/10/09 00:42:07;;;;;;;13.88;7.07;;;;;;;;;;5110249;28;20043;-74
2023/10/09 00:44:39;;;;;;;14.07;6.80;;;;;;;;;;5087587;28;20126;-74
2023/10/09 00:47:20;;;;;;;15.40;7.47;;;;;;;;;;5100854;28;20519;-74
2023/10/09 00:49:47;;;;;;;14.15;7.47;;;;;;;;;;5111090;28;20043;-74
2023/10/09 00:52:22;;;;;;;15.05;7.30;;;;;;;;;;5101799;28;20043;-74
2023/10/09 00:54:51;;;;;;;13.93;8.00;;;;;;;;;;5086297;28;20497;-74
2023/10/09 00:57:24;;;;;;;15.18;7.75;;;;;;;;;;5105981;28;20047;-74
2023/10/09 00:59:59;;;;;;;15.55;8.35;;;;;;;;;;5085816;28;20043;-74
2023/10/09 01:02:35;;;;;;;17.23;8.00;;;;;;;;;;5105259;28;20058;-74
2023/10/09 01:05:09;;;;;;;18.55;8.23;;;;;;;;;;5104683;28;20108;-74
2023/10/09 01:07:37;;;;;;;15.88;8.07;;;;;;;;;;5090660;28;20043;-74
2023/10/09 01:10:33;;;;;;;17.67;8.40;;;;;;;;;;5111744;28;20047;-74
2023/10/09 01:12:54;;;;;;;16.35;7.93;;;;;;;;;;5099209;28;20043;-74
2023/10/09 01:15:36;;;;;;;20.63;8.95;;;;;;;;;;5088020;28;20062;-74
2023/10/09 01:18:04;;;;;;;18.58;8.65;;;;;;;;;;5086179;28;20416;-74
2023/10/09 01:20:40;;;;;;;16.63;8.73;;;;;;;;;;5104510;28;20043;-74
2023/10/09 01:23:07;;;;;;;18.35;9.25;;;;;;;;;;5108806;28;20093;-74
2023/10/09 01:25:42;;;;;;;17.08;8.82;;;;;;;;;;5106772;28;20043;-74
2023/10/09 01:28:09;;;;;;;15.75;8.77;;;;;;;;;;5111169;28;20082;-74
2023/10/09 01:30:41;;;;;;;19.67;9.52;;;;;;;;;;5109651;28;20071;-74
2023/10/09 01:33:12;;;;;;;22.85;9.80;;;;;;;;;;5111147;28;20179;-74
2023/10/09 01:35:47;;;;;;;19.23;9.35;;;;;;;;;;5110804;28;20043;-74
2023/10/09 01:38:15;;;;;;;21.08;10.27;;;;;;;;;;5110505;28;20439;-74
2023/10/09 01:40:43;;;;;;;18.23;8.68;;;;;;;;;;5105976;28;20051;-74
2023/10/09 01:43:12;;;;;;;19.05;10.18;;;;;;;;;;5109486;28;20331;-74
2023/10/09 01:45:46;;;;;;;22.92;11.00;;;;;;;;;;5103852;28;20077;-74
2023/10/09 01:48:14;;;;;;;22.20;10.65;;;;;;;;;;5086467;28;20044;-74
2023/10/09 01:50:41;;;;;;;23.80;10.70;;;;;;;;;;5109134;28;20118;-74
2023/10/09 01:53:08;;;;;;;21.67;10.88;;;;;;;;;;5088792;28;20046;-74
2023/10/09 01:55:38;;;;;;;21.75;11.38;;;;;;;;;;5106770;28;20032;-74
2023/10/09 02:00:56;;;;;;;28.67;11.80;;;;;;;;;;5081402;28;20073;-74
2023/10/09 02:03:29;;;;;;;22.35;11.35;;;;;;;;;;5108905;28;20039;-73
2023/10/09 02:05:59;;;;;;;26.00;11.52;;;;;;;;;;5104925;28;20142;-73
2023/10/09 02:08:29;;;;;;;25.88;12.65;;;;;;;;;;5104834;28;20036;-73
2023/10/09 02:10:56;;;;;;;29.13;12.85;;;;;;;;;;5103479;28;20127;-73
2023/10/09 02:13:29;;;;;;;26.27;12.68;;;;;;;;;;5093634;28;20043;-73
2023/10/09 02:16:12;;;;;;;24.52;13.25;;;;;;;;;;5114884;28;20055;-73
2023/10/09 02:18:55;;;;;;;31.15;15.10;;;;;;;;;;5096118;28;20488;-73
2023/10/09 02:21:39;;;;;;;24.15;12.93;;;;;;;;;;5113648;28;20043;-73
2023/10/09 02:24:12;;;;;;;28.77;13.73;;;;;;;;;;5094676;28;20039;-73
2023/10/09 02:29:14;;;;;;;32.42;14.88;;;;;;;;;;5096716;28;20123;-73
2023/10/09 02:31:41;;;;;;;28.48;14.48;;;;;;;;;;5095349;28;20040;-73
2023/10/09 02:34:10;;;;;;;29.98;13.93;;;;;;;;;;5096389;28;20051;-73
2023/10/09 02:36:48;;;;;;;28.35;14.75;;;;;;;;;;5092943;28;20066;-73
2023/10/09 02:39:23;;;;;;;31.90;15.85;;;;;;;;;;5091174;28;20051;-73
2023/10/09 02:41:50;;;;;;;29.30;14.70;;;;;;;;;;5091146;28;20515;-73
2023/10/09 02:44:17;;;;;;;33.63;15.65;;;;;;;;;;5108118;28;20083;-74
2023/10/09 02:46:44;;;;;;;33.17;16.52;;;;;;;;;;5096396;28;20108;-73
2023/10/09 02:49:15;;;;;;;35.97;17.20;;;;;;;;;;5093319;28;20056;-73
2023/10/09 02:51:47;;;;;;;;;;;;;;;;;;5106650;28;20035;-73
2023/10/09 02:54:27;;;;;;;38.92;17.10;;;;;;;;;;5096485;28;19919;-74
2023/10/09 02:57:05;;;;;;;37.08;17.67;;;;;;;;;;5092189;28;20096;-74
2023/10/09 02:59:32;;;;;;;38.38;17.77;;;;;;;;;;5111259;28;20092;-74
2023/10/09 03:01:59;;;;;;;34.45;18.08;;;;;;;;;;5095551;28;20307;-74
2023/10/09 03:04:29;;;;;;;39.80;18.60;;;;;;;;;;5113234;28;20051;-74
2023/10/09 03:06:57;;;;;;;36.50;17.55;;;;;;;;;;5094472;28;20035;-74
2023/10/09 03:09:27;;;;;;;41.95;18.40;;;;;;;;;;5112557;28;20039;-74
2023/10/09 03:11:53;;;;;;;39.20;17.95;;;;;;;;;;5114220;28;20081;-74
2023/10/09 03:14:28;;;;;;;37.83;17.92;;;;;;;;;;5114545;28;20088;-74
2023/10/09 03:16:55;;;;;;;40.15;19.60;;;;;;;;;;5108974;28;20420;-74
2023/10/09 03:19:22;;;;;;;37.08;18.80;;;;;;;;;;5173197;22;20039;-65
2023/10/09 03:21:48;;;;;;;36.47;18.23;;;;;;;;;;5094865;28;20054;-64
2023/10/09 03:24:15;;;;;;;35.58;17.67;;;;;;;;;;5095358;28;20044;-65
2023/10/09 03:26:45;;;;;;;36.70;18.88;;;;;;;;;;5093388;28;20128;-65
2023/10/09 03:29:11;;;;;;;39.00;18.23;;;;;;;;;;5109878;28;20424;-65
2023/10/09 03:31:38;;;;;;;38.28;19.83;;;;;;;;;;5086121;28;20040;-65
2023/10/09 03:34:04;;;;;;;37.60;18.85;;;;;;;;;;5103227;28;20051;-65
2023/10/09 03:36:30;;;;;;;43.78;18.77;;;;;;;;;;5091574;28;20087;-65
2023/10/09 03:38:58;;;;;;;40.03;20.10;;;;;;;;;;5086820;28;20036;-65
2023/10/09 03:41:28;;;;;;;42.47;20.80;;;;;;;;;;5089559;28;20123;-65
2023/10/09 03:43:55;;;;;;;39.65;19.23;;;;;;;;;;5106403;28;20602;-64
2023/10/09 03:46:22;;;;;;;44.75;20.90;;;;;;;;;;5103535;28;20451;-66
2023/10/09 03:48:48;;;;;;;39.28;20.20;;;;;;;;;;5076174;28;20107;-65
2023/10/09 03:51:21;;;;;;;40.55;20.17;;;;;;;;;;5076974;28;20071;-65
2023/10/09 03:53:47;;;;;;;46.63;21.75;;;;;;;;;;5066682;28;20039;-65
2023/10/09 03:56:15;;;;;;;48.38;21.65;;;;;;;;;;5073063;28;20623;-66
2023/10/09 03:58:43;;;;;;;38.47;20.35;;;;;;;;;;5072537;28;20113;-66
2023/10/09 04:03:55;;;;;;;40.80;21.17;;;;;;;;;;5067492;28;20050;-65
2023/10/09 04:06:30;;;;;;;47.03;22.23;;;;;;;;;;5089551;28;20044;-65
2023/10/09 04:08:58;;;;;;;46.58;21.35;;;;;;;;;;5070509;28;20495;-65
2023/10/09 04:11:24;;;;;;;47.03;21.52;;;;;;;;;;5090508;28;20044;-64
2023/10/09 04:13:52;;;;;;;48.60;21.98;;;;;;;;;;5090227;28;20487;-64
2023/10/09 04:18:56;;;;;;;41.50;21.75;;;;;;;;;;5068755;28;20497;-65
2023/10/09 04:21:35;;;;;;;45.28;22.38;;;;;;;;;;5084008;28;20032;-65
2023/10/09 04:26:44;;;;;;;49.53;22.88;;;;;;;;;;5067403;28;20514;-65
2023/10/09 04:29:18;;;;;;;44.28;20.67;;;;;;;;;;5069176;28;20052;-65
2023/10/09 04:31:44;;;;;;;46.92;21.83;;;;;;;;;;5073255;28;20046;-65
2023/10/09 04:34:23;;;;;;;45.78;20.98;;;;;;;;;;5088925;28;20079;-65
2023/10/09 04:37:01;;;;;;;48.58;22.60;;;;;;;;;;5070008;28;20115;-64
2023/10/09 04:47:49;;;;;;;48.95;23.08;;;;;;;;;;5080423;28;20051;-63
2023/10/09 04:50:36;;;;;;;48.00;22.85;;;;;;;;;;5091232;28;20065;-65
2023/10/09 04:55:44;;;;;;;49.85;23.17;;;;;;;;;;5089304;28;20092;-65
2023/10/09 04:58:23;;;;;;;53.28;23.20;;;;;;;;;;5071324;28;20420;-65
2023/10/09 05:01:04;;;;;;;49.97;23.75;;;;;;;;;;5083255;28;20055;-66
2023/10/09 05:03:56;;;;;;;50.85;23.55;;;;;;;;;;5068633;28;20051;-65
2023/10/09 05:06:32;;;;;;;54.97;23.38;;;;;;;;;;5069249;28;20044;-65
2023/10/09 05:09:07;;;;;;;51.53;24.13;;;;;;;;;;5083071;28;20043;-65
2023/10/09 05:11:46;;;;;;;51.70;22.80;;;;;;;;;;5073788;28;20054;-65
2023/10/09 05:14:12;;;;;;;51.45;23.38;;;;;;;;;;5069602;28;20040;-66
2023/10/09 05:16:53;;;;;;;46.13;22.80;;;;;;;;;;5089496;28;20058;-66
2023/10/09 05:19:33;;;;;;;55.25;23.30;;;;;;;;;;5070316;28;20072;-66
2023/10/09 05:22:04;;;;;;;52.30;23.95;;;;;;;;;;5060375;28;20521;-66
2023/10/09 05:24:43;;;;;;;49.00;23.83;;;;;;;;;;5088192;28;20079;-65
2023/10/09 05:27:17;;;;;;;51.17;22.75;;;;;;;;;;5070004;28;20055;-67
2023/10/09 05:30:33;;;;;;;50.97;23.80;;;;;;;;;;5067665;28;20056;-66
2023/10/09 05:32:34;;;;;;;50.75;23.15;;;;;;;;;;5047797;28;20048;-66
2023/10/09 05:37:33;;;;;;;51.53;23.63;;;;;;;;;;5063934;28;20084;-66
2023/10/09 05:47:53;;;;;;;54.30;22.75;;;;;;;;;;5073585;28;20097;-65
2023/10/09 06:03:23;;;;;;;45.42;20.83;;;;;;;;;;5066860;28;20048;-66
2023/10/09 06:11:38;;;;;;;43.88;20.67;;;;;;;;;;5063882;28;20075;-65
2023/10/09 06:14:04;;;;;;;46.35;21.90;;;;;;;;;;5067157;28;20412;-66
2023/10/09 06:16:43;;;;;;;36.28;18.30;;;;;;;;;;5087215;28;20036;-65
2023/10/09 06:19:26;;;;;;;39.25;18.85;;;;;;;;;;5075338;28;20066;-66
2023/10/09 06:24:23;;;;;;;37.72;19.25;;;;;;;;;;5070566;28;20094;-65
2023/10/09 06:29:38;;;;;;;39.72;18.60;;;;;;;;;;5064316;28;20055;-66
2023/10/09 06:32:34;;;;;;;37.08;17.33;;;;;;;;;;5071990;28;20052;-66
2023/10/09 06:35:16;;;;;;;35.08;17.33;;;;;;;;;;5089405;28;20040;-66
2023/10/09 06:46:37;;;;;;;27.40;14.40;;;;;;;;;;5069553;28;20134;-66
2023/10/09 06:48:55;;;;;;;31.38;15.60;;;;;;;;;;5067107;28;20068;-66
2023/10/09 06:58:58;;;;;;;31.27;14.27;;;;;;;;;;5074781;28;20048;-66
2023/10/09 07:03:59;;;;;;;27.67;12.23;;;;;;;;;;5074336;28;20084;-65
2023/10/09 07:14:08;;;;;;;21.83;11.50;;;;;;;;;;5089141;28;20047;-65
2023/10/09 07:16:57;;;;;;;22.45;10.93;;;;;;;;;;5073382;28;20384;-65
2023/10/09 07:19:57;;;;;;;27.15;11.25;;;;;;;;;;5071549;28;20048;-65
2023/10/09 07:24:57;;;;;;;22.48;10.10;;;;;;;;;;5072480;28;20534;-65
2023/10/09 07:27:55;;;;;;;21.73;10.23;;;;;;;;;;5072615;28;20411;-66
2023/10/09 07:38:09;;;;;;;20.05;9.68;;;;;;;;;;5076990;28;20101;-66
2023/10/09 07:43:38;;;;;;;21.92;10.00;;;;;;;;;;5072460;28;20044;-66
2023/10/09 07:51:33;;;;;;;22.38;9.27;;;;;;;;;;5053747;28;20488;-65
2023/10/09 07:54:08;;;;;;;15.82;8.77;;;;;;;;;;5072337;28;20663;-65
2023/10/09 07:56:41;;;;;;;20.77;9.45;;;;;;;;;;5071818;28;20051;-66
2023/10/09 07:59:11;;;;;;;18.58;9.50;;;;;;;;;;5072070;28;20048;-66
2023/10/09 08:01:54;;;;;;;17.55;8.73;;;;;;;;;;5073822;28;20047;-66
2023/10/09 08:04:37;;;;;;;20.08;8.68;;;;;;;;;;5075280;28;20047;-65
2023/10/09 08:07:07;;;;;;;20.52;8.60;;;;;;;;;;5086347;28;20137;-65
2023/10/09 08:09:46;;;;;;;23.33;8.63;;;;;;;;;;5072598;28;20043;-66
2023/10/09 08:12:39;;;;;;;16.88;9.50;;;;;;;;;;5072937;28;20408;-66
2023/10/09 08:17:50;;;;;;;17.00;8.77;;;;;;;;;;5073382;28;20040;-66
2023/10/09 08:20:17;;;;;;;19.15;8.70;;;;;;;;;;5073712;28;20047;-66
2023/10/09 08:22:50;;;;;;;21.80;8.85;;;;;;;;;;5073224;28;20511;-66
2023/10/09 08:25:31;;;;;;;15.88;8.30;;;;;;;;;;5091223;28;20043;-66
2023/10/09 08:28:39;;;;;;;21.27;8.38;;;;;;;;;;5072925;28;20069;-66
2023/10/09 08:31:02;;;;;;;22.05;9.35;;;;;;;;;;5074590;28;20075;-66
2023/10/09 08:33:40;;;;;;;17.95;8.25;;;;;;;;;;5092591;28;20613;-66
2023/10/09 08:36:08;;;;;;;17.70;8.20;;;;;;;;;;5067541;28;20097;-66
2023/10/09 08:38:34;;;;;;;18.90;8.40;;;;;;;;;;5073633;28;20048;-64
2023/10/09 08:41:09;;;;;;;22.48;9.45;;;;;;;;;;5082588;28;20040;-66
2023/10/09 08:43:36;;;;;;;16.98;8.07;;;;;;;;;;5092053;28;20043;-66
2023/10/09 08:46:04;;;;;;;17.77;8.55;;;;;;;;;;5073994;28;20093;-65
2023/10/09 08:48:30;;;;;;;16.55;8.57;;;;;;;;;;5093259;28;20036;-65
2023/10/09 08:50:57;;;;;;;20.65;8.23;;;;;;;;;;5066177;28;20190;-65
2023/10/09 08:53:24;;;;;;;17.92;7.65;;;;;;;;;;5069841;28;20039;-65
2023/10/09 08:55:51;;;;;;;23.30;8.80;;;;;;;;;;5093695;28;20036;-66
2023/10/09 08:58:24;;;;;;;23.42;9.20;;;;;;;;;;5072971;28;20048;-66
2023/10/09 09:00:51;;;;;;;19.90;8.32;;;;;;;;;;5072998;28;20075;-66
2023/10/09 09:03:18;;;;;;;21.00;8.40;;;;;;;;;;5088354;28;20441;-65
2023/10/09 09:05:51;;;;;;;19.33;8.77;;;;;;;;;;5065052;28;20044;-65
2023/10/09 09:08:25;;;;;;;22.08;9.18;;;;;;;;;;5059689;28;20466;-65
2023/10/09 09:11:22;;;;;;;20.35;9.32;;;;;;;;;;5069616;28;20048;-65
2023/10/09 09:14:18;;;;;;;22.77;8.88;;;;;;;;;;5067585;28;20036;-65
2023/10/09 09:16:48;;;;;;;22.80;8.65;;;;;;;;;;5066746;28;20381;-66
2023/10/09 09:19:17;;;;;;;17.30;9.00;;;;;;;;;;5087233;22;20049;-69
2023/10/09 09:21:54;;;;;;;19.52;9.00;;;;;;;;;;5066595;28;20057;-68
2023/10/09 09:26:58;;;;;;;22.85;9.20;;;;;;;;;;5062013;28;20040;-69
2023/10/09 09:29:26;;;;;;;18.52;9.68;;;;;;;;;;5036571;28;20497;-69
2023/10/09 09:31:53;;;;;;;17.60;8.48;;;;;;;;;;5046249;28;20066;-69
2023/10/09 09:34:25;;;;;;;26.08;9.35;;;;;;;;;;5049017;28;20491;-69
2023/10/09 09:36:55;;;;;;;23.40;9.00;;;;;;;;;;5046234;28;20045;-69
2023/10/09 09:39:29;;;;;;;16.85;8.57;;;;;;;;;;5040347;28;20037;-70
2023/10/09 09:41:57;;;;;;;17.38;8.52;;;;;;;;;;5046234;28;20518;-70
2023/10/09 09:44:26;;;;;;;22.50;9.68;;;;;;;;;;5049859;28;20418;-70
2023/10/09 09:46:55;;;;;;;21.27;9.90;;;;;;;;;;5048091;28;20112;-71
2023/10/09 09:49:21;;;;;;;21.50;9.07;;;;;;;;;;5048119;28;20495;-70
2023/10/09 09:51:47;;;;;;;21.90;10.05;;;;;;;;;;5047052;28;20036;-71
2023/10/09 09:54:16;;;;;;;20.23;9.13;;;;;;;;;;5047149;28;20142;-70
2023/10/09 09:56:51;;;;;;;19.80;9.00;;;;;;;;;;5048376;28;20064;-70
2023/10/09 09:59:21;;;;;;;21.38;9.13;;;;;;;;;;5048265;28;20049;-70
2023/10/09 10:01:56;;;;;;;25.42;9.27;;;;;;;;;;5048217;28;20533;-70
2023/10/09 10:04:24;;;;;;;17.48;8.23;;;;;;;;;;5044821;28;20120;-70
2023/10/09 10:06:54;;;;;;;20.98;8.38;;;;;;;;;;5047291;28;20033;-70
2023/10/09 10:09:41;;;;;;;22.75;9.57;;;;;;;;;;5047856;28;20049;-70
2023/10/09 10:12:10;;;;;;;21.77;9.13;;;;;;;;;;5046377;28;20052;-70
2023/10/09 10:18:00;;;;;;;20.13;8.63;;;;;;;;;;5046887;28;20045;-70
2023/10/09 10:20:26;;;;;;;19.17;9.43;;;;;;;;;;5048210;28;20047;-70
2023/10/09 10:23:17;;;;;;;20.65;9.15;;;;;;;;;;5045260;28;20151;-70
2023/10/09 10:25:48;;;;;;;21.17;8.87;;;;;;;;;;5044325;28;20494;-70
2023/10/09 10:28:28;;;;;;;24.13;10.25;;;;;;;;;;5049397;28;20045;-70
2023/10/09 10:30:54;;;;;;;23.83;9.60;;;;;;;;;;5050321;28;20049;-70
2023/10/09 10:33:22;;;;;;;20.02;9.32;;;;;;;;;;5050317;28;20048;-70
2023/10/09 10:38:36;;;;;;;21.60;9.27;;;;;;;;;;5049500;28;20139;-70
2023/10/09 10:41:12;;;;;;;19.60;8.02;;;;;;;;;;5048787;28;20049;-70
2023/10/09 10:43:47;;;;;;;20.17;9.10;;;;;;;;;;5051956;28;20101;-70
2023/10/09 10:46:24;;;;;;;21.10;8.40;;;;;;;;;;5043729;28;20094;-70
2023/10/09 10:48:58;;;;;;;21.42;7.93;;;;;;;;;;5048740;28;20041;-70
2023/10/09 10:51:34;;;;;;;20.52;8.38;;;;;;;;;;5043226;28;20046;-70
2023/10/09 10:54:26;;;;;;;16.40;8.27;;;;;;;;;;5043861;28;20403;-70
2023/10/09 10:56:47;;;;;;;18.58;8.45;;;;;;;;;;5045963;28;20072;-70
2023/10/09 10:59:13;;;;;;;17.40;7.90;;;;;;;;;;5050249;28;20033;-70
2023/10/09 11:12:37;;;;;;;15.43;7.47;;;;;;;;;;5051362;28;20043;-70
2023/10/09 11:18:05;;;;;;;14.93;6.50;;;;;;;;;;5049797;28;20048;-70
2023/10/09 11:20:35;;;;;;;22.05;7.53;;;;;;;;;;5051895;28;20045;-70
2023/10/09 11:25:50;;;;;;;17.83;7.70;;;;;;;;;;5052101;28;20037;-70
2023/10/09 11:31:17;;;;;;;18.13;7.82;;;;;;;;;;5051015;28;20045;-70
2023/10/09 11:33:44;;;;;;;19.50;7.55;;;;;;;;;;5047161;28;20040;-70
2023/10/09 11:36:11;;;;;;;19.08;8.20;;;;;;;;;;5041548;28;20112;-70
2023/10/09 11:38:37;;;;;;;18.83;7.15;;;;;;;;;;5050149;28;20040;-70
2023/10/09 11:41:22;;;;;;;14.75;6.65;;;;;;;;;;5048257;28;20037;-70
2023/10/09 11:43:52;;;;;;;17.88;7.55;;;;;;;;;;5046633;28;20052;-70
2023/10/09 11:46:39;;;;;;;13.50;6.38;;;;;;;;;;5046306;28;20128;-70
2023/10/09 11:49:26;;;;;;;19.55;6.90;;;;;;;;;;5045336;28;20068;-70
2023/10/09 11:54:37;;;;;;;15.70;6.70;;;;;;;;;;5050360;28;20041;-70
2023/10/09 11:57:03;;;;;;;15.27;7.05;;;;;;;;;;5051141;28;20128;-70
2023/10/09 11:59:39;;;;;;;13.32;5.93;;;;;;;;;;5045835;28;20038;-70
2023/10/09 12:02:10;;;;;;;13.85;5.72;;;;;;;;;;5040990;28;20068;-70
2023/10/09 12:04:37;;;;;;;14.68;6.35;;;;;;;;;;5054034;28;20040;-70
2023/10/09 12:07:10;;;;;;;13.32;6.03;;;;;;;;;;5038049;28;20047;-70
2023/10/09 12:09:37;;;;;;;15.15;5.95;;;;;;;;;;5050313;28;20053;-70
2023/10/09 12:12:03;;;;;;;15.38;5.55;;;;;;;;;;5045292;28;20076;-70
2023/10/09 12:14:33;;;;;;;13.52;5.53;;;;;;;;;;5048239;28;20475;-70
2023/10/09 12:17:05;;;;;;;10.32;5.47;;;;;;;;;;5038052;28;20041;-70
2023/10/09 12:19:31;;;;;;;12.68;5.25;;;;;;;;;;5044818;28;20467;-70
2023/10/09 12:22:00;;;;;;;14.93;5.10;;;;;;;;;;5050843;28;20063;-70
2023/10/09 12:24:26;;;;;;;12.25;4.97;;;;;;;;;;5051533;28;20045;-70
2023/10/09 12:26:53;;;;;;;10.95;5.10;;;;;;;;;;5050631;28;20620;-70
2023/10/09 12:29:19;;;;;;;12.30;4.80;;;;;;;;;;5050681;28;20079;-70
2023/10/09 12:31:45;;;;;;;10.70;4.50;;;;;;;;;;5049840;28;20036;-70
2023/10/09 12:34:15;;;;;;;15.18;4.50;;;;;;;;;;5046934;28;20061;-69
2023/10/09 12:36:43;;;;;;;12.13;4.43;;;;;;;;;;5048160;28;20411;-69
2023/10/09 12:39:17;;;;;;;8.27;4.72;;;;;;;;;;5047882;28;20142;-69
2023/10/09 12:41:43;;;;;;;10.38;4.63;;;;;;;;;;5042107;28;20064;-69
2023/10/09 12:44:18;;;;;;;8.50;4.25;;;;;;;;;;5050659;28;20056;-69
2023/10/09 12:46:54;;;;;;;8.80;4.13;;;;;;;;;;5044627;28;20041;-69
2023/10/09 12:49:24;;;;;;;10.65;4.60;;;;;;;;;;5039251;28;20032;-69
2023/10/09 12:51:50;;;;;;;;;;;;;;;;;;5048742;28;20175;-69
2023/10/09 12:54:16;;;;;;;16.95;5.13;;;;;;;;;;5050131;28;20411;-70
2023/10/09 12:56:42;;;;;;;14.45;4.30;;;;;;;;;;5050519;28;20029;-70
2023/10/09 12:59:14;;;;;;;12.18;5.00;;;;;;;;;;5051399;28;20490;-70
2023/10/09 13:01:43;;;;;;;15.57;4.60;;;;;;;;;;5051728;28;20056;-70
2023/10/09 13:04:11;;;;;;;13.68;4.57;;;;;;;;;;5047247;28;20037;-70
2023/10/09 13:06:43;;;;;;;12.88;4.68;;;;;;;;;;5050980;28;20420;-70
2023/10/09 13:09:09;;;;;;;18.17;5.93;;;;;;;;;;5046068;28;20125;-70
2023/10/09 13:11:37;;;;;;;11.60;4.18;;;;;;;;;;5051388;28;20033;-70
2023/10/09 13:14:11;;;;;;;9.45;4.60;;;;;;;;;;5046197;28;20040;-70
2023/10/09 13:16:37;;;;;;;10.55;4.40;;;;;;;;;;5050164;28;20041;-70
2023/10/09 13:19:09;;;;;;;7.13;3.85;;;;;;;;;;5041956;28;20087;-70
2023/10/09 13:21:40;;;;;;;9.07;3.80;;;;;;;;;;5048965;28;20040;-70
2023/10/09 13:24:13;;;;;;;12.13;4.63;;;;;;;;;;5041968;28;20041;-70
2023/10/09 13:26:40;;;;;;;11.05;4.45;;;;;;;;;;5050109;28;20040;-70
2023/10/09 13:29:11;;;;;;;7.78;3.63;;;;;;;;;;5051307;28;20142;-70
2023/10/09 13:31:38;;;;;;;8.30;3.70;;;;;;;;;;5049304;28;20041;-70
2023/10/09 13:34:09;;;;;;;8.77;3.30;;;;;;;;;;5044489;28;20040;-71
2023/10/09 13:36:37;;;;;;;9.32;3.22;;;;;;;;;;5050609;28;20380;-70
2023/10/09 13:39:26;;;;;;;9.45;3.42;;;;;;;;;;5039843;28;20037;-69
2023/10/09 13:41:57;;;;;;;8.68;2.88;;;;;;;;;;5045585;28;20041;-69
2023/10/09 13:44:29;;;;;;;8.95;3.00;;;;;;;;;;5046211;28;20151;-69
2023/10/09 13:46:56;;;;;;;7.25;3.35;;;;;;;;;;5044274;28;20040;-69
2023/10/09 13:49:22;;;;;;;6.43;2.83;;;;;;;;;;5047866;28;20068;-69
2023/10/09 13:51:49;;;;;;;6.85;2.92;;;;;;;;;;5040523;28;20045;-69
2023/10/09 13:54:28;;;;;;;7.68;2.72;;;;;;;;;;5050751;28;20033;-69
2023/10/09 13:56:54;;;;;;;6.65;2.50;;;;;;;;;;5047261;28;20486;-69
2023/10/09 13:59:22;;;;;;;7.65;2.72;;;;;;;;;;5046789;28;20037;-69
2023/10/09 14:01:48;;;;;;;7.03;2.95;;;;;;;;;;5045004;28;20550;-69
2023/10/09 14:04:20;;;;;;;7.70;2.90;;;;;;;;;;5051214;28;20039;-69
2023/10/09 14:06:47;;;;;;;7.78;2.90;;;;;;;;;;5052668;28;20044;-69
2023/10/09 14:09:27;;;;;;;9.70;3.17;;;;;;;;;;5051681;28;20041;-69
2023/10/09 14:12:06;;;;;;;7.35;3.65;;;;;;;;;;5049241;28;20064;-69
2023/10/09 14:14:46;;;;;;;7.28;3.28;;;;;;;;;;5053768;28;20059;-69
2023/10/09 14:17:13;;;;;;;6.43;2.80;;;;;;;;;;5053997;28;20041;-69
2023/10/09 14:19:49;;;;;;;11.80;3.13;;;;;;;;;;5054620;28;20041;-69
2023/10/09 14:22:16;;;;;;;10.68;3.15;;;;;;;;;;5050808;28;20135;-69
2023/10/09 14:24:55;;;;;;;8.90;2.88;;;;;;;;;;5052761;28;20053;-69
2023/10/09 14:27:23;;;;;;;8.85;2.85;;;;;;;;;;5050710;28;20095;-69
2023/10/09 14:29:50;;;;;;;6.95;2.85;;;;;;;;;;5047122;28;20041;-69
2023/10/09 14:32:16;;;;;;;9.48;2.97;;;;;;;;;;5050787;28;20041;-68
2023/10/09 14:34:46;;;;;;;11.25;3.55;;;;;;;;;;5046382;28;20507;-68
2023/10/09 14:37:12;;;;;;;8.20;3.15;;;;;;;;;;5046257;28;20048;-68
2023/10/09 14:39:39;;;;;;;7.70;3.10;;;;;;;;;;5051128;28;20417;-68
2023/10/09 14:42:09;;;;;;;9.48;3.15;;;;;;;;;;5047740;28;20045;-68
2023/10/09 14:44:37;;;;;;;7.45;2.70;;;;;;;;;;5050908;28;20037;-68
2023/10/09 14:47:05;;;;;;;8.73;2.97;;;;;;;;;;5052852;28;20102;-68
2023/10/09 14:49:43;;;;;;;9.75;3.20;;;;;;;;;;5052829;28;20044;-68
2023/10/09 14:52:09;;;;;;;9.52;3.08;;;;;;;;;;5052049;28;20036;-68
2023/10/09 14:54:35;;;;;;;11.20;3.03;;;;;;;;;;5045902;28;20113;-68
2023/10/09 14:57:05;;;;;;;8.63;2.80;;;;;;;;;;5053622;28;20079;-69
2023/10/09 14:59:31;;;;;;;10.45;2.92;;;;;;;;;;5051410;28;20147;-69
2023/10/09 15:01:58;;;;;;;6.85;2.72;;;;;;;;;;5047755;28;20061;-69
2023/10/09 15:04:25;;;;;;;6.95;2.42;;;;;;;;;;5051019;28;20041;-69
2023/10/09 15:06:51;;;;;;;7.32;2.40;;;;;;;;;;5053276;28;20108;-69
2023/10/09 15:09:22;;;;;;;5.95;2.38;;;;;;;;;;5053053;28;20033;-69
2023/10/09 15:11:48;;;;;;;3.30;2.13;;;;;;;;;;5049693;28;20041;-69
2023/10/09 15:14:14;;;;;;;6.45;2.20;;;;;;;;;;5048828;28;20037;-69
2023/10/09 15:16:42;;;;;;;3.97;2.35;;;;;;;;;;5043607;28;20489;-69
2023/10/09 15:19:09;;;;;;;7.60;2.47;;;;;;;;;;5078480;22;20131;-72
2023/10/09 15:21:36;;;;;;;5.70;2.53;;;;;;;;;;5074994;28;20035;-73
2023/10/09 15:24:02;;;;;;;5.22;2.28;;;;;;;;;;5093021;28;20040;-72
2023/10/09 15:26:32;;;;;;;4.25;2.22;;;;;;;;;;5073527;28;20055;-72
2023/10/09 15:29:00;;;;;;;10.57;3.20;;;;;;;;;;5052610;28;20057;-72
2023/10/09 15:31:27;;;;;;;5.63;2.20;;;;;;;;;;5069722;28;20568;-72
2023/10/09 15:33:53;;;;;;;6.38;2.53;;;;;;;;;;5065430;28;20520;-72
2023/10/09 15:36:25;;;;;;;7.90;2.65;;;;;;;;;;5054895;28;20483;-72
2023/10/09 15:38:51;;;;;;;7.95;2.50;;;;;;;;;;5069496;28;20044;-72
2023/10/09 15:41:21;;;;;;;5.03;2.58;;;;;;;;;;5072984;28;20040;-72
2023/10/09 15:43:47;;;;;;;7.43;3.00;;;;;;;;;;5067022;28;20071;-72
2023/10/09 15:46:14;;;;;;;6.95;2.67;;;;;;;;;;5050488;28;20075;-72
2023/10/09 15:48:40;;;;;;;5.28;2.55;;;;;;;;;;5069883;28;20041;-72
2023/10/09 15:51:11;;;;;;;8.27;2.80;;;;;;;;;;5054037;28;20165;-72
2023/10/09 15:53:38;;;;;;;8.23;3.03;;;;;;;;;;5037054;28;20037;-72
2023/10/09 15:56:07;;;;;;;6.85;2.83;;;;;;;;;;5053868;28;20064;-73
2023/10/09 15:58:33;;;;;;;6.00;2.90;;;;;;;;;;5053615;28;20048;-72
2023/10/09 16:00:59;;;;;;;7.88;3.33;;;;;;;;;;5053906;28;20040;-72
2023/10/09 16:03:27;;;;;;;7.90;3.00;;;;;;;;;;5053030;28;20040;-72
2023/10/09 16:05:53;;;;;;;6.93;2.85;;;;;;;;;;5054508;28;20082;-72
2023/10/09 16:08:22;;;;;;;11.55;3.40;;;;;;;;;;5054245;28;20044;-72
2023/10/09 16:10:49;;;;;;;5.32;2.58;;;;;;;;;;5052700;28;20040;-72
2023/10/09 16:13:16;;;;;;;8.25;2.92;;;;;;;;;;5059215;28;20095;-73
2023/10/09 16:15:45;;;;;;;6.15;2.72;;;;;;;;;;5053298;28;20495;-73
2023/10/09 16:18:11;;;;;;;8.75;2.92;;;;;;;;;;5062123;28;20029;-73
2023/10/09 16:20:37;;;;;;;10.20;3.53;;;;;;;;;;5053135;28;20048;-73
2023/10/09 16:23:04;;;;;;;7.55;2.53;;;;;;;;;;5069105;28;20076;-73
2023/10/09 16:25:36;;;;;;;9.98;3.17;;;;;;;;;;5070023;28;20375;-72
2023/10/09 16:28:03;;;;;;;10.07;2.65;;;;;;;;;;5066548;28;20032;-73
2023/10/09 16:30:29;;;;;;;6.75;2.22;;;;;;;;;;5051205;28;20055;-73
2023/10/09 16:32:56;;;;;;;6.15;2.25;;;;;;;;;;5065501;28;20043;-73
2023/10/09 16:35:22;;;;;;;7.50;2.33;;;;;;;;;;5058953;28;20033;-72
2023/10/09 16:37:52;;;;;;;6.50;2.10;;;;;;;;;;5056331;28;20040;-72
2023/10/09 16:40:20;;;;;;;7.28;2.05;;;;;;;;;;5050984;28;20124;-72
2023/10/09 16:42:46;;;;;;;7.60;2.58;;;;;;;;;;5071753;28;20033;-72
2023/10/09 16:45:15;;;;;;;5.53;2.10;;;;;;;;;;5053570;28;20541;-72
2023/10/09 16:47:41;;;;;;;4.55;1.90;;;;;;;;;;5067429;28;20056;-72
2023/10/09 16:50:11;;;;;;;6.88;2.28;;;;;;;;;;5071982;28;20060;-72
2023/10/09 16:52:38;;;;;;;4.40;1.95;;;;;;;;;;5066262;28;20083;-72
2023/10/09 16:55:09;;;;;;;5.78;2.15;;;;;;;;;;5064007;28;20431;-72
2023/10/09 16:57:39;;;;;;;4.15;1.80;;;;;;;;;;5061559;28;20503;-72
2023/10/09 17:00:12;;;;;;;5.75;1.77;;;;;;;;;;5067637;28;20113;-73
2023/10/09 17:02:40;;;;;;;6.38;1.85;;;;;;;;;;5071514;28;20140;-73
2023/10/09 17:05:09;;;;;;;4.75;1.60;;;;;;;;;;5071662;28;20127;-73
2023/10/09 17:07:35;;;;;;;6.75;2.15;;;;;;;;;;5067902;28;20051;-73
2023/10/09 17:10:09;;;;;;;6.28;1.70;;;;;;;;;;5048709;28;20037;-73
2023/10/09 17:12:35;;;;;;;3.63;1.58;;;;;;;;;;5064870;28;20045;-73